• Join FlightAware (Why Join?)
  • Login
  • US Flag 
07:55PM EDT


 

Airport Tracker/Info


-or-


 

Live Flight TrackerFlight Track Log ✈ LJY58 ✈ 25-Apr-2013 ✈ KCHS - KLBE

Flight Track Log - Related Links

Times and Time Zones

All times are in EDT time to prevent confusion due to time zone crossing. See the LJY58 flight status page for this flight to view local times or setup timezone preferences in your user account.

Time Position Orientation Groundspeed Altitude Reporting Facility
EDT Latitude Longitude Course Direction KTS MPH feet Rate Location/Type
04:22PM 32.9808 -79.9903 North 209 241 4,000  Level Jacksonville Center
04:23PM 33.0256 -80.0361 319° Northwest 243 280 7,200 2,820 Climbing Jacksonville Center
04:24PM 33.0586 -80.1117 298° West 270 311 9,700 1,320 Climbing Jacksonville Center
04:25PM 33.1222 -80.1594 328° Northwest 270 311 9,900 120 Climbing Jacksonville Center
04:26PM 33.1794 -80.1997 329° Northwest 295 339 10,000  Climbing Jacksonville Center
04:27PM 33.4680 -80.0167 North  Level FlightAware Approximate
04:27PM 33.2569 -80.2125 352° North 285 328 9,900  Level Jacksonville Center
04:28PM 33.3403 -80.2075 North 285 328 13,200 3,060 Climbing Jacksonville Center
04:29PM 33.4297 -80.1947 North 291 335 16,100 2,700 Climbing Jacksonville Center
04:30PM 33.5161 -80.1322 31° Northeast 326 375 18,700 2,700 Climbing Jacksonville Center
04:31PM 33.6000 -80.0572 37° Northeast 343 395 21,500 2,040 Climbing Jacksonville Center
04:32PM 33.6989 -79.9992 26° Northeast 374 430 22,800 1,020 Climbing Jacksonville Center
04:33PM 33.8114 -79.9881 North 381 438 23,600 1,860 Climbing Jacksonville Center
04:34PM 33.9175 -79.9794 North 386 444 26,600 2,580 Climbing Jacksonville Center
04:35PM 34.0217 -79.9711 North 381 438 28,900 2,040 Climbing Jacksonville Center
04:36PM 34.1236 -79.9628 North 376 433 30,700 2,100 Climbing Jacksonville Center
04:37PM 34.2300 -79.9542 North 371 427 33,100 1,980 Climbing Jacksonville Center
04:40PM 34.4769 -79.9353 North 354 407 37,500 1,620 Climbing Washington Center
04:41PM 34.5794 -79.9256 North 354 407 38,700 720 Climbing Washington Center
04:42PM 34.6861 -79.9161 North 367 422 39,000 120 Climbing Washington Center
04:43PM 34.8011 -79.9094 North 390 449 39,000  Level Washington Center
04:44PM 34.9122 -79.8978 North 401 461 39,000  Level Washington Center
04:45PM 35.0258 -79.8733 10° North 408 470 39,000  Level Washington Center
04:46PM 35.1419 -79.8311 17° North 414 476 39,000  Level Washington Center
04:47PM 35.2581 -79.7917 16° North 424 488 39,000  Level Washington Center
04:48PM 35.3744 -79.7517 16° North 424 488 39,000  Level Washington Center
04:49PM 35.4906 -79.7119 16° North 424 488 39,000  Level Washington Center
04:50PM 35.6086 -79.6719 15° North 424 488 39,000  Level Washington Center
04:51PM 35.7250 -79.6294 17° North 433 498 39,000  Level Washington Center
04:52PM 35.8408 -79.5917 15° North 433 498 39,000  Level Washington Center
04:53PM 35.9550 -79.5514 16° North 427 491 39,000  Level Washington Center
04:54PM 36.0667 -79.5158 14° North 422 486 39,000  Level Washington Center
04:55PM 36.1767 -79.4750 17° North 422 486 39,000  Level Washington Center
04:56PM 36.2925 -79.4369 15° North 422 486 39,000  Level Washington Center
04:57PM 36.4003 -79.3958 17° North 412 474 39,000 -240 Level Washington Center
04:58PM 36.5142 -79.3547 16° North 406 467 38,600 -960 Descending Washington Center
04:59PM 36.6150 -79.3364 North 406 467 37,100 -840 Descending Washington Center
05:00PM 36.7192 -79.3389 359° North 391 450 37,000 -180 Descending Washington Center
05:01PM 36.8297 -79.3417 359° North 384 442 36,800 -1,020 Descending Washington Center
05:02PM 36.9486 -79.3447 359° North 384 442 35,000 -1,740 Descending Washington Center
05:03PM 37.0592 -79.3450 360° North 384 442 33,400 -1,020 Descending Washington Center
05:04PM 37.1736 -79.3481 359° North 395 455 33,000 -240 Descending Washington Center
05:05PM 37.2906 -79.3511 359° North 408 470 33,000 -660 Level Washington Center
05:06PM 37.3928 -79.3508 360° North 408 470 31,700 -1,560 Descending Washington Center
05:07PM 37.5114 -79.3567 358° North 414 476 29,900 -1,380 Descending Washington Center
05:08PM 37.6367 -79.3578 360° North 415 478 29,000 -480 Descending Washington Center
05:09PM 37.7594 -79.3611 359° North 420 483 29,000  Level Washington Center
05:10PM 37.8783 -79.3644 359° North 425 489 29,000  Level Washington Center
05:11PM 37.9844 -79.3672 359° North 425 489 29,000 -60 Level Washington Center
05:12PM 38.1075 -79.3681 360° North 425 489 28,900 -900 Descending Washington Center
05:13PM 38.2242 -79.3714 359° North 419 482 27,300 -1,800 Descending Washington Center
05:14PM 38.3492 -79.3750 359° North 419 482 25,400 -1,620 Descending Washington Center
05:15PM 38.4617 -79.3781 359° North 414 476 24,100 -720 Descending Washington Center
05:16PM 38.5744 -79.3786 360° North 409 471 24,000 -60 Descending Washington Center
05:17PM 38.6889 -79.3819 359° North 404 465 24,000 -600 Level Washington Center
05:18PM 38.7975 -79.3794 North 399 459 22,800 -1,440 Descending Washington Center
05:19PM 38.9058 -79.3797 360° North 394 453 21,200 -600 Descending Washington Center
05:21PM 39.1394 -79.3842 359° North 396 456 21,000 -120 Descending Cleveland Center
05:22PM 39.2458 -79.3903 357° North 391 450 21,000 -540 Level Cleveland Center
05:23PM 39.3542 -79.3886 North 391 450 20,000 -1,500 Descending Cleveland Center
05:24PM 39.4628 -79.3919 359° North 385 443 18,000 -2,160 Descending Cleveland Center
05:25PM 39.5628 -79.3931 360° North 380 437 15,700 -2,340 Descending Cleveland Center
05:26PM 39.6628 -79.3939 360° North 367 422 13,400 -2,640 Descending Cleveland Center
05:26PM 39.6942 -79.4014 350° North 355 409 12,400 -4,440 Descending Cleveland Center
05:27PM 39.7608 -79.3975 North 355 409 9,000 -1,800 Descending Cleveland Center
05:27PM 39.7858 -79.3997 356° North 340 391 10,600 480 Climbing Cleveland Center
05:28PM 39.8442 -79.4014 359° North 326 375 9,500 -1,800 Descending Cleveland Center
05:28PM 39.8650 -79.4039 355° North 287 330 8,800 -1,920 Descending Cleveland Center
05:29PM 39.9422 -79.4078 358° North 279 321 7,100 -1,440 Descending Cleveland Center
05:30PM 40.0111 -79.4094 359° North 271 312 6,100 -420 Descending Cleveland Center
05:31PM 40.0633 -79.4247 347° North 258 297 6,400 -480 Climbing Cleveland Center
05:32PM 40.1322 -79.4344 354° North 252 290 5,300 -960 Descending Cleveland Center
05:33PM 40.2050 -79.4061 17° North 223 257 4,400 -960 Descending Cleveland Center
05:34PM 40.2506 -79.3753 27° Northeast 197 227 3,200 -1,080 Descending Cleveland Center
05:35PM 40.2878 -79.3447 32° Northeast 177 204 2,300 -900 Descending Cleveland Center